sensor_id;sensor_type;location;lat;lon;timestamp;P1;durP1;ratioP1;P2;durP2;ratioP2
6306;SDS011;3186;54.062;9.962;2023-09-18T00:00:46;7.23;;;5.67;;
6306;SDS011;3186;54.062;9.962;2023-09-18T00:03:15;7.03;;;6.33;;
6306;SDS011;3186;54.062;9.962;2023-09-18T00:05:44;9.83;;;6.00;;
6306;SDS011;3186;54.062;9.962;2023-09-18T00:08:10;6.83;;;6.13;;
6306;SDS011;3186;54.062;9.962;2023-09-18T00:10:35;5.90;;;5.30;;
6306;SDS011;3186;54.062;9.962;2023-09-18T00:13:01;7.20;;;6.07;;
6306;SDS011;3186;54.062;9.962;2023-09-18T00:15:27;7.77;;;6.47;;
6306;SDS011;3186;54.062;9.962;2023-09-18T00:17:53;8.27;;;5.53;;
6306;SDS011;3186;54.062;9.962;2023-09-18T00:20:18;6.50;;;5.57;;
6306;SDS011;3186;54.062;9.962;2023-09-18T00:22:45;6.50;;;5.73;;
6306;SDS011;3186;54.062;9.962;2023-09-18T00:25:11;6.60;;;6.00;;
6306;SDS011;3186;54.062;9.962;2023-09-18T00:27:36;6.40;;;5.80;;
6306;SDS011;3186;54.062;9.962;2023-09-18T00:30:03;8.87;;;6.30;;
6306;SDS011;3186;54.062;9.962;2023-09-18T00:32:30;7.73;;;6.37;;
6306;SDS011;3186;54.062;9.962;2023-09-18T00:34:56;7.67;;;6.80;;
6306;SDS011;3186;54.062;9.962;2023-09-18T00:37:22;5.90;;;5.23;;
6306;SDS011;3186;54.062;9.962;2023-09-18T00:39:49;10.07;;;6.57;;
6306;SDS011;3186;54.062;9.962;2023-09-18T00:42:15;7.17;;;6.47;;
6306;SDS011;3186;54.062;9.962;2023-09-18T00:44:43;7.07;;;6.00;;
6306;SDS011;3186;54.062;9.962;2023-09-18T00:47:09;7.33;;;6.63;;
6306;SDS011;3186;54.062;9.962;2023-09-18T00:49:36;6.80;;;6.07;;
6306;SDS011;3186;54.062;9.962;2023-09-18T00:52:05;7.87;;;6.97;;
6306;SDS011;3186;54.062;9.962;2023-09-18T00:54:32;6.87;;;6.17;;
6306;SDS011;3186;54.062;9.962;2023-09-18T00:57:00;8.37;;;6.33;;
6306;SDS011;3186;54.062;9.962;2023-09-18T00:59:28;6.80;;;5.80;;
6306;SDS011;3186;54.062;9.962;2023-09-18T01:01:53;8.00;;;6.10;;
6306;SDS011;3186;54.062;9.962;2023-09-18T01:04:19;8.03;;;5.80;;
6306;SDS011;3186;54.062;9.962;2023-09-18T01:06:46;9.53;;;6.00;;
6306;SDS011;3186;54.062;9.962;2023-09-18T01:09:15;8.23;;;6.30;;
6306;SDS011;3186;54.062;9.962;2023-09-18T01:11:47;7.50;;;6.33;;
6306;SDS011;3186;54.062;9.962;2023-09-18T01:14:37;6.70;;;6.07;;
6306;SDS011;3186;54.062;9.962;2023-09-18T01:17:10;6.37;;;5.73;;
6306;SDS011;3186;54.062;9.962;2023-09-18T01:19:45;6.77;;;5.97;;
6306;SDS011;3186;54.062;9.962;2023-09-18T01:22:13;7.93;;;6.50;;
6306;SDS011;3186;54.062;9.962;2023-09-18T01:24:39;10.00;;;6.27;;
6306;SDS011;3186;54.062;9.962;2023-09-18T01:27:13;6.67;;;6.03;;
6306;SDS011;3186;54.062;9.962;2023-09-18T01:29:42;6.07;;;5.47;;
6306;SDS011;3186;54.062;9.962;2023-09-18T01:32:08;7.03;;;6.33;;
6306;SDS011;3186;54.062;9.962;2023-09-18T01:34:37;7.67;;;6.07;;
6306;SDS011;3186;54.062;9.962;2023-09-18T01:37:09;6.97;;;6.10;;
6306;SDS011;3186;54.062;9.962;2023-09-18T01:39:36;6.53;;;5.87;;
6306;SDS011;3186;54.062;9.962;2023-09-18T01:42:04;7.97;;;6.17;;
6306;SDS011;3186;54.062;9.962;2023-09-18T01:44:31;7.50;;;6.17;;
6306;SDS011;3186;54.062;9.962;2023-09-18T01:46:58;7.07;;;6.40;;
6306;SDS011;3186;54.062;9.962;2023-09-18T01:49:28;6.53;;;5.93;;
6306;SDS011;3186;54.062;9.962;2023-09-18T01:51:55;8.17;;;6.60;;
6306;SDS011;3186;54.062;9.962;2023-09-18T01:54:21;6.97;;;6.27;;
6306;SDS011;3186;54.062;9.962;2023-09-18T01:56:47;7.30;;;6.53;;
6306;SDS011;3186;54.062;9.962;2023-09-18T01:59:12;8.87;;;6.50;;
6306;SDS011;3186;54.062;9.962;2023-09-18T02:01:38;6.87;;;6.13;;
6306;SDS011;3186;54.062;9.962;2023-09-18T02:04:04;7.33;;;6.23;;
6306;SDS011;3186;54.062;9.962;2023-09-18T02:06:30;6.80;;;5.93;;
6306;SDS011;3186;54.062;9.962;2023-09-18T02:08:55;7.50;;;5.80;;
6306;SDS011;3186;54.062;9.962;2023-09-18T02:11:21;7.43;;;6.20;;
6306;SDS011;3186;54.062;9.962;2023-09-18T02:13:47;7.67;;;6.13;;
6306;SDS011;3186;54.062;9.962;2023-09-18T02:16:12;5.87;;;5.37;;
6306;SDS011;3186;54.062;9.962;2023-09-18T02:18:38;6.73;;;6.10;;
6306;SDS011;3186;54.062;9.962;2023-09-18T02:21:04;7.97;;;6.03;;
6306;SDS011;3186;54.062;9.962;2023-09-18T02:23:29;13.47;;;6.17;;
6306;SDS011;3186;54.062;9.962;2023-09-18T02:25:55;7.63;;;6.70;;
6306;SDS011;3186;54.062;9.962;2023-09-18T02:28:22;7.90;;;6.50;;
6306;SDS011;3186;54.062;9.962;2023-09-18T02:30:47;6.90;;;6.20;;
6306;SDS011;3186;54.062;9.962;2023-09-18T02:33:13;8.13;;;6.30;;
6306;SDS011;3186;54.062;9.962;2023-09-18T02:35:40;7.33;;;6.63;;
6306;SDS011;3186;54.062;9.962;2023-09-18T02:38:06;7.50;;;6.77;;
6306;SDS011;3186;54.062;9.962;2023-09-18T02:40:31;9.20;;;6.40;;
6306;SDS011;3186;54.062;9.962;2023-09-18T02:42:57;6.63;;;5.93;;
6306;SDS011;3186;54.062;9.962;2023-09-18T02:45:23;8.70;;;6.83;;
6306;SDS011;3186;54.062;9.962;2023-09-18T02:47:48;7.40;;;6.70;;
6306;SDS011;3186;54.062;9.962;2023-09-18T02:50:14;7.77;;;6.93;;
6306;SDS011;3186;54.062;9.962;2023-09-18T02:52:39;7.37;;;6.67;;
6306;SDS011;3186;54.062;9.962;2023-09-18T02:55:05;7.53;;;6.77;;
6306;SDS011;3186;54.062;9.962;2023-09-18T02:57:31;13.87;;;6.50;;
6306;SDS011;3186;54.062;9.962;2023-09-18T02:59:57;10.13;;;7.03;;
6306;SDS011;3186;54.062;9.962;2023-09-18T03:02:23;6.93;;;6.23;;
6306;SDS011;3186;54.062;9.962;2023-09-18T03:04:49;7.10;;;6.20;;
6306;SDS011;3186;54.062;9.962;2023-09-18T03:07:14;8.53;;;6.73;;
6306;SDS011;3186;54.062;9.962;2023-09-18T03:09:41;8.00;;;6.17;;
6306;SDS011;3186;54.062;9.962;2023-09-18T03:12:07;7.43;;;6.33;;
6306;SDS011;3186;54.062;9.962;2023-09-18T03:14:33;7.93;;;6.57;;
6306;SDS011;3186;54.062;9.962;2023-09-18T03:16:59;7.77;;;6.57;;
6306;SDS011;3186;54.062;9.962;2023-09-18T03:19:25;7.00;;;6.30;;
6306;SDS011;3186;54.062;9.962;2023-09-18T03:21:52;7.77;;;6.17;;
6306;SDS011;3186;54.062;9.962;2023-09-18T03:24:18;7.70;;;6.90;;
6306;SDS011;3186;54.062;9.962;2023-09-18T03:26:43;7.37;;;6.63;;
6306;SDS011;3186;54.062;9.962;2023-09-18T03:29:09;7.27;;;6.57;;
6306;SDS011;3186;54.062;9.962;2023-09-18T03:31:36;8.30;;;6.87;;
6306;SDS011;3186;54.062;9.962;2023-09-18T03:34:01;7.50;;;6.73;;
6306;SDS011;3186;54.062;9.962;2023-09-18T03:36:27;7.80;;;7.03;;
6306;SDS011;3186;54.062;9.962;2023-09-18T03:38:53;8.27;;;6.97;;
6306;SDS011;3186;54.062;9.962;2023-09-18T03:41:19;7.87;;;7.17;;
6306;SDS011;3186;54.062;9.962;2023-09-18T03:43:45;11.60;;;7.33;;
6306;SDS011;3186;54.062;9.962;2023-09-18T03:46:11;8.80;;;6.97;;
6306;SDS011;3186;54.062;9.962;2023-09-18T03:48:42;7.73;;;6.20;;
6306;SDS011;3186;54.062;9.962;2023-09-18T03:51:08;8.77;;;7.00;;
6306;SDS011;3186;54.062;9.962;2023-09-18T03:53:35;7.17;;;6.47;;
6306;SDS011;3186;54.062;9.962;2023-09-18T03:56:00;8.33;;;6.60;;
6306;SDS011;3186;54.062;9.962;2023-09-18T03:58:26;6.77;;;6.10;;
6306;SDS011;3186;54.062;9.962;2023-09-18T04:00:52;7.87;;;7.00;;
6306;SDS011;3186;54.062;9.962;2023-09-18T04:03:18;7.27;;;6.57;;
6306;SDS011;3186;54.062;9.962;2023-09-18T04:05:44;7.10;;;6.40;;
6306;SDS011;3186;54.062;9.962;2023-09-18T04:08:10;7.30;;;6.60;;
6306;SDS011;3186;54.062;9.962;2023-09-18T04:10:36;7.30;;;6.60;;
6306;SDS011;3186;54.062;9.962;2023-09-18T04:13:02;7.20;;;6.50;;
6306;SDS011;3186;54.062;9.962;2023-09-18T04:15:28;7.00;;;6.33;;
6306;SDS011;3186;54.062;9.962;2023-09-18T04:17:56;7.63;;;6.90;;
6306;SDS011;3186;54.062;9.962;2023-09-18T04:20:21;7.37;;;6.60;;
6306;SDS011;3186;54.062;9.962;2023-09-18T04:23:16;7.73;;;6.53;;
6306;SDS011;3186;54.062;9.962;2023-09-18T04:25:44;7.57;;;6.37;;
6306;SDS011;3186;54.062;9.962;2023-09-18T04:28:11;8.90;;;6.90;;
6306;SDS011;3186;54.062;9.962;2023-09-18T04:30:38;7.33;;;6.63;;
6306;SDS011;3186;54.062;9.962;2023-09-18T04:33:04;8.00;;;6.57;;
6306;SDS011;3186;54.062;9.962;2023-09-18T04:35:29;7.80;;;6.67;;
6306;SDS011;3186;54.062;9.962;2023-09-18T04:37:58;8.57;;;6.30;;
6306;SDS011;3186;54.062;9.962;2023-09-18T04:40:25;7.77;;;7.07;;
6306;SDS011;3186;54.062;9.962;2023-09-18T04:42:52;7.27;;;6.50;;
6306;SDS011;3186;54.062;9.962;2023-09-18T04:45:18;6.93;;;6.20;;
6306;SDS011;3186;54.062;9.962;2023-09-18T04:47:44;8.20;;;7.03;;
6306;SDS011;3186;54.062;9.962;2023-09-18T04:50:09;7.40;;;6.67;;
6306;SDS011;3186;54.062;9.962;2023-09-18T04:52:36;9.33;;;7.23;;
6306;SDS011;3186;54.062;9.962;2023-09-18T04:55:01;7.03;;;6.13;;
6306;SDS011;3186;54.062;9.962;2023-09-18T04:57:28;7.10;;;6.43;;
6306;SDS011;3186;54.062;9.962;2023-09-18T04:59:54;8.87;;;7.70;;
6306;SDS011;3186;54.062;9.962;2023-09-18T05:02:19;7.27;;;6.57;;
6306;SDS011;3186;54.062;9.962;2023-09-18T05:04:45;7.07;;;6.37;;
6306;SDS011;3186;54.062;9.962;2023-09-18T05:07:11;6.93;;;6.23;;
6306;SDS011;3186;54.062;9.962;2023-09-18T05:09:37;7.57;;;6.87;;
6306;SDS011;3186;54.062;9.962;2023-09-18T05:12:05;7.37;;;6.53;;
6306;SDS011;3186;54.062;9.962;2023-09-18T05:14:33;8.50;;;7.60;;
6306;SDS011;3186;54.062;9.962;2023-09-18T05:16:59;7.57;;;6.20;;
6306;SDS011;3186;54.062;9.962;2023-09-18T05:19:25;7.20;;;6.50;;
6306;SDS011;3186;54.062;9.962;2023-09-18T05:21:50;7.50;;;6.80;;
6306;SDS011;3186;54.062;9.962;2023-09-18T05:24:17;9.37;;;7.07;;
6306;SDS011;3186;54.062;9.962;2023-09-18T05:26:51;9.00;;;7.70;;
6306;SDS011;3186;54.062;9.962;2023-09-18T05:29:18;8.50;;;7.70;;
6306;SDS011;3186;54.062;9.962;2023-09-18T05:31:45;7.83;;;7.10;;
6306;SDS011;3186;54.062;9.962;2023-09-18T05:34:11;8.37;;;6.47;;
6306;SDS011;3186;54.062;9.962;2023-09-18T05:36:37;8.63;;;7.43;;
6306;SDS011;3186;54.062;9.962;2023-09-18T05:39:03;8.97;;;7.13;;
6306;SDS011;3186;54.062;9.962;2023-09-18T05:41:29;10.73;;;7.63;;
6306;SDS011;3186;54.062;9.962;2023-09-18T05:43:56;10.40;;;6.83;;
6306;SDS011;3186;54.062;9.962;2023-09-18T05:46:22;7.93;;;7.13;;
6306;SDS011;3186;54.062;9.962;2023-09-18T05:48:47;10.67;;;8.17;;
6306;SDS011;3186;54.062;9.962;2023-09-18T05:51:13;6.60;;;5.87;;
6306;SDS011;3186;54.062;9.962;2023-09-18T05:53:39;7.73;;;6.77;;
6306;SDS011;3186;54.062;9.962;2023-09-18T05:56:04;9.43;;;6.87;;
6306;SDS011;3186;54.062;9.962;2023-09-18T05:58:33;8.03;;;7.17;;
6306;SDS011;3186;54.062;9.962;2023-09-18T06:01:00;11.57;;;7.53;;
6306;SDS011;3186;54.062;9.962;2023-09-18T06:03:26;9.10;;;8.13;;
6306;SDS011;3186;54.062;9.962;2023-09-18T06:05:55;8.07;;;7.27;;
6306;SDS011;3186;54.062;9.962;2023-09-18T06:08:21;10.30;;;7.43;;
6306;SDS011;3186;54.062;9.962;2023-09-18T06:10:47;10.43;;;8.80;;
6306;SDS011;3186;54.062;9.962;2023-09-18T06:13:13;8.90;;;7.47;;
6306;SDS011;3186;54.062;9.962;2023-09-18T06:15:39;9.40;;;7.40;;
6306;SDS011;3186;54.062;9.962;2023-09-18T06:18:04;8.53;;;7.73;;
6306;SDS011;3186;54.062;9.962;2023-09-18T06:20:31;9.10;;;7.70;;
6306;SDS011;3186;54.062;9.962;2023-09-18T06:22:57;8.10;;;7.37;;
6306;SDS011;3186;54.062;9.962;2023-09-18T06:25:22;7.70;;;6.90;;
6306;SDS011;3186;54.062;9.962;2023-09-18T06:27:48;8.90;;;8.00;;
6306;SDS011;3186;54.062;9.962;2023-09-18T06:30:14;10.97;;;7.50;;
6306;SDS011;3186;54.062;9.962;2023-09-18T06:32:39;8.33;;;7.53;;
6306;SDS011;3186;54.062;9.962;2023-09-18T06:35:05;7.80;;;6.70;;
6306;SDS011;3186;54.062;9.962;2023-09-18T06:37:31;8.20;;;7.23;;
6306;SDS011;3186;54.062;9.962;2023-09-18T06:39:56;8.77;;;7.90;;
6306;SDS011;3186;54.062;9.962;2023-09-18T06:42:22;9.50;;;8.53;;
6306;SDS011;3186;54.062;9.962;2023-09-18T06:44:56;9.17;;;7.13;;
6306;SDS011;3186;54.062;9.962;2023-09-18T06:47:21;8.27;;;7.23;;
6306;SDS011;3186;54.062;9.962;2023-09-18T06:49:49;7.87;;;7.10;;
6306;SDS011;3186;54.062;9.962;2023-09-18T06:52:16;9.20;;;8.30;;
6306;SDS011;3186;54.062;9.962;2023-09-18T06:54:41;8.97;;;8.07;;
6306;SDS011;3186;54.062;9.962;2023-09-18T06:57:09;9.07;;;7.37;;
6306;SDS011;3186;54.062;9.962;2023-09-18T06:59:35;8.40;;;7.53;;
6306;SDS011;3186;54.062;9.962;2023-09-18T07:02:01;7.97;;;7.13;;
6306;SDS011;3186;54.062;9.962;2023-09-18T07:04:27;8.77;;;7.87;;
6306;SDS011;3186;54.062;9.962;2023-09-18T07:06:53;9.83;;;7.30;;
6306;SDS011;3186;54.062;9.962;2023-09-18T07:09:19;11.00;;;8.43;;
6306;SDS011;3186;54.062;9.962;2023-09-18T07:11:48;9.57;;;8.20;;
6306;SDS011;3186;54.062;9.962;2023-09-18T07:14:14;10.17;;;7.87;;
6306;SDS011;3186;54.062;9.962;2023-09-18T07:16:40;8.87;;;7.80;;
6306;SDS011;3186;54.062;9.962;2023-09-18T07:19:05;9.90;;;8.50;;
6306;SDS011;3186;54.062;9.962;2023-09-18T07:21:32;9.20;;;7.63;;
6306;SDS011;3186;54.062;9.962;2023-09-18T07:23:59;8.73;;;7.93;;
6306;SDS011;3186;54.062;9.962;2023-09-18T07:26:26;8.33;;;7.50;;
6306;SDS011;3186;54.062;9.962;2023-09-18T07:28:52;10.43;;;7.83;;
6306;SDS011;3186;54.062;9.962;2023-09-18T07:31:17;10.30;;;7.43;;
6306;SDS011;3186;54.062;9.962;2023-09-18T07:33:43;10.00;;;7.63;;
6306;SDS011;3186;54.062;9.962;2023-09-18T07:36:08;12.50;;;8.27;;
6306;SDS011;3186;54.062;9.962;2023-09-18T07:38:40;8.73;;;7.83;;
6306;SDS011;3186;54.062;9.962;2023-09-18T07:41:08;9.73;;;7.70;;
6306;SDS011;3186;54.062;9.962;2023-09-18T07:43:34;8.47;;;7.20;;
6306;SDS011;3186;54.062;9.962;2023-09-18T07:45:59;8.80;;;7.80;;
6306;SDS011;3186;54.062;9.962;2023-09-18T07:48:26;9.73;;;7.70;;
6306;SDS011;3186;54.062;9.962;2023-09-18T07:50:52;8.60;;;7.63;;
6306;SDS011;3186;54.062;9.962;2023-09-18T07:53:19;8.63;;;7.73;;
6306;SDS011;3186;54.062;9.962;2023-09-18T07:55:45;9.83;;;7.83;;
6306;SDS011;3186;54.062;9.962;2023-09-18T07:58:12;11.13;;;7.60;;
6306;SDS011;3186;54.062;9.962;2023-09-18T08:00:38;7.97;;;7.17;;
6306;SDS011;3186;54.062;9.962;2023-09-18T08:03:04;8.07;;;6.87;;
6306;SDS011;3186;54.062;9.962;2023-09-18T08:05:30;8.17;;;7.30;;
6306;SDS011;3186;54.062;9.962;2023-09-18T08:07:57;8.33;;;7.40;;
6306;SDS011;3186;54.062;9.962;2023-09-18T08:10:24;10.50;;;7.20;;
6306;SDS011;3186;54.062;9.962;2023-09-18T08:12:53;9.03;;;7.37;;
6306;SDS011;3186;54.062;9.962;2023-09-18T08:15:19;11.57;;;7.27;;
6306;SDS011;3186;54.062;9.962;2023-09-18T08:17:45;9.53;;;7.60;;
6306;SDS011;3186;54.062;9.962;2023-09-18T08:20:11;7.83;;;7.13;;
6306;SDS011;3186;54.062;9.962;2023-09-18T08:22:38;8.17;;;6.90;;
6306;SDS011;3186;54.062;9.962;2023-09-18T08:25:05;9.67;;;7.57;;
6306;SDS011;3186;54.062;9.962;2023-09-18T08:27:39;11.40;;;7.20;;
6306;SDS011;3186;54.062;9.962;2023-09-18T08:30:08;11.63;;;7.50;;
6306;SDS011;3186;54.062;9.962;2023-09-18T08:32:36;18.00;;;10.87;;
6306;SDS011;3186;54.062;9.962;2023-09-18T08:35:03;8.07;;;7.30;;
6306;SDS011;3186;54.062;9.962;2023-09-18T08:37:29;7.63;;;6.93;;
6306;SDS011;3186;54.062;9.962;2023-09-18T08:39:54;7.10;;;6.33;;
6306;SDS011;3186;54.062;9.962;2023-09-18T08:42:20;10.33;;;8.63;;
6306;SDS011;3186;54.062;9.962;2023-09-18T08:44:51;7.23;;;6.57;;
6306;SDS011;3186;54.062;9.962;2023-09-18T08:47:18;7.30;;;6.50;;
6306;SDS011;3186;54.062;9.962;2023-09-18T08:49:45;9.50;;;7.40;;
6306;SDS011;3186;54.062;9.962;2023-09-18T08:52:13;7.77;;;6.97;;
6306;SDS011;3186;54.062;9.962;2023-09-18T08:54:40;8.20;;;6.80;;
6306;SDS011;3186;54.062;9.962;2023-09-18T08:57:08;7.53;;;6.57;;
6306;SDS011;3186;54.062;9.962;2023-09-18T08:59:34;8.70;;;6.47;;
6306;SDS011;3186;54.062;9.962;2023-09-18T09:02:01;6.53;;;5.97;;
6306;SDS011;3186;54.062;9.962;2023-09-18T09:04:27;8.57;;;6.30;;
6306;SDS011;3186;54.062;9.962;2023-09-18T09:06:53;6.97;;;6.30;;
6306;SDS011;3186;54.062;9.962;2023-09-18T09:09:22;7.37;;;6.60;;
6306;SDS011;3186;54.062;9.962;2023-09-18T09:11:51;6.40;;;5.83;;
6306;SDS011;3186;54.062;9.962;2023-09-18T09:14:17;6.20;;;5.60;;
6306;SDS011;3186;54.062;9.962;2023-09-18T09:16:50;7.03;;;6.33;;
6306;SDS011;3186;54.062;9.962;2023-09-18T09:19:16;7.30;;;6.60;;
6306;SDS011;3186;54.062;9.962;2023-09-18T09:21:43;6.63;;;6.03;;
6306;SDS011;3186;54.062;9.962;2023-09-18T09:24:10;9.50;;;5.50;;
6306;SDS011;3186;54.062;9.962;2023-09-18T09:26:39;6.77;;;6.03;;
6306;SDS011;3186;54.062;9.962;2023-09-18T09:29:18;5.93;;;5.43;;
6306;SDS011;3186;54.062;9.962;2023-09-18T09:31:45;6.43;;;5.87;;
6306;SDS011;3186;54.062;9.962;2023-09-18T09:34:11;5.67;;;5.17;;
6306;SDS011;3186;54.062;9.962;2023-09-18T09:36:54;8.70;;;6.03;;
6306;SDS011;3186;54.062;9.962;2023-09-18T09:39:21;7.63;;;5.70;;
6306;SDS011;3186;54.062;9.962;2023-09-18T09:41:54;7.77;;;6.37;;
6306;SDS011;3186;54.062;9.962;2023-09-18T09:44:20;7.63;;;6.20;;
6306;SDS011;3186;54.062;9.962;2023-09-18T09:46:46;7.03;;;6.30;;
6306;SDS011;3186;54.062;9.962;2023-09-18T09:49:13;5.73;;;5.23;;
6306;SDS011;3186;54.062;9.962;2023-09-18T09:51:40;6.07;;;5.30;;
6306;SDS011;3186;54.062;9.962;2023-09-18T09:54:07;6.47;;;5.87;;
6306;SDS011;3186;54.062;9.962;2023-09-18T09:56:48;6.57;;;5.90;;
6306;SDS011;3186;54.062;9.962;2023-09-18T09:59:19;9.73;;;5.90;;
6306;SDS011;3186;54.062;9.962;2023-09-18T10:01:48;6.60;;;5.90;;
6306;SDS011;3186;54.062;9.962;2023-09-18T10:04:15;7.70;;;5.80;;
6306;SDS011;3186;54.062;9.962;2023-09-18T10:06:43;6.90;;;5.57;;
6306;SDS011;3186;54.062;9.962;2023-09-18T10:09:10;6.73;;;5.87;;
6306;SDS011;3186;54.062;9.962;2023-09-18T10:11:40;6.67;;;5.80;;
6306;SDS011;3186;54.062;9.962;2023-09-18T10:14:14;6.30;;;5.67;;
6306;SDS011;3186;54.062;9.962;2023-09-18T10:16:44;8.70;;;5.70;;
6306;SDS011;3186;54.062;9.962;2023-09-18T10:19:16;8.00;;;6.00;;
6306;SDS011;3186;54.062;9.962;2023-09-18T10:24:39;8.03;;;6.37;;
6306;SDS011;3186;54.062;9.962;2023-09-18T10:27:08;10.80;;;6.17;;
6306;SDS011;3186;54.062;9.962;2023-09-18T10:29:38;6.73;;;5.57;;
6306;SDS011;3186;54.062;9.962;2023-09-18T10:32:07;7.47;;;5.47;;
6306;SDS011;3186;54.062;9.962;2023-09-18T10:34:33;10.77;;;6.27;;
6306;SDS011;3186;54.062;9.962;2023-09-18T10:37:00;7.73;;;5.57;;
6306;SDS011;3186;54.062;9.962;2023-09-18T10:39:31;10.47;;;6.17;;
6306;SDS011;3186;54.062;9.962;2023-09-18T10:42:00;6.73;;;6.03;;
6306;SDS011;3186;54.062;9.962;2023-09-18T10:44:27;6.73;;;6.03;;
6306;SDS011;3186;54.062;9.962;2023-09-18T10:46:53;10.67;;;5.93;;
6306;SDS011;3186;54.062;9.962;2023-09-18T10:49:20;9.23;;;5.67;;
6306;SDS011;3186;54.062;9.962;2023-09-18T10:51:47;7.40;;;5.93;;
6306;SDS011;3186;54.062;9.962;2023-09-18T10:54:20;13.77;;;5.97;;
6306;SDS011;3186;54.062;9.962;2023-09-18T10:56:46;12.50;;;6.47;;
6306;SDS011;3186;54.062;9.962;2023-09-18T10:59:13;11.07;;;5.97;;
6306;SDS011;3186;54.062;9.962;2023-09-18T11:01:40;7.90;;;6.20;;
6306;SDS011;3186;54.062;9.962;2023-09-18T11:04:07;7.83;;;5.63;;
6306;SDS011;3186;54.062;9.962;2023-09-18T11:07:20;9.33;;;5.97;;
6306;SDS011;3186;54.062;9.962;2023-09-18T11:09:22;8.87;;;5.90;;
6306;SDS011;3186;54.062;9.962;2023-09-18T11:17:35;8.23;;;5.83;;
6306;SDS011;3186;54.062;9.962;2023-09-18T11:20:08;7.53;;;5.57;;
6306;SDS011;3186;54.062;9.962;2023-09-18T11:22:48;6.97;;;5.30;;
6306;SDS011;3186;54.062;9.962;2023-09-18T11:28:14;10.23;;;5.33;;
6306;SDS011;3186;54.062;9.962;2023-09-18T11:30:52;12.40;;;5.60;;
6306;SDS011;3186;54.062;9.962;2023-09-18T11:33:30;9.87;;;5.47;;
6306;SDS011;3186;54.062;9.962;2023-09-18T11:36:02;7.83;;;5.67;;
6306;SDS011;3186;54.062;9.962;2023-09-18T11:38:47;7.37;;;5.33;;
6306;SDS011;3186;54.062;9.962;2023-09-18T11:43:53;16.50;;;5.60;;
6306;SDS011;3186;54.062;9.962;2023-09-18T11:46:50;8.07;;;5.43;;
6306;SDS011;3186;54.062;9.962;2023-09-18T11:49:20;9.80;;;5.73;;
6306;SDS011;3186;54.062;9.962;2023-09-18T11:51:51;9.67;;;5.33;;
6306;SDS011;3186;54.062;9.962;2023-09-18T11:54:18;8.30;;;5.33;;
6306;SDS011;3186;54.062;9.962;2023-09-18T11:56:44;8.40;;;5.07;;
6306;SDS011;3186;54.062;9.962;2023-09-18T11:59:09;8.27;;;6.00;;
6306;SDS011;3186;54.062;9.962;2023-09-18T12:01:36;11.67;;;5.70;;
6306;SDS011;3186;54.062;9.962;2023-09-18T12:04:04;6.20;;;5.60;;
6306;SDS011;3186;54.062;9.962;2023-09-18T12:06:38;9.50;;;5.97;;
6306;SDS011;3186;54.062;9.962;2023-09-18T12:09:05;8.10;;;6.13;;
6306;SDS011;3186;54.062;9.962;2023-09-18T12:11:32;10.67;;;5.60;;
6306;SDS011;3186;54.062;9.962;2023-09-18T12:14:00;10.23;;;5.63;;
6306;SDS011;3186;54.062;9.962;2023-09-18T12:16:27;11.73;;;6.20;;
6306;SDS011;3186;54.062;9.962;2023-09-18T12:18:53;8.30;;;6.10;;
6306;SDS011;3186;54.062;9.962;2023-09-18T12:21:19;10.57;;;6.03;;
6306;SDS011;3186;54.062;9.962;2023-09-18T12:23:45;10.03;;;5.67;;
6306;SDS011;3186;54.062;9.962;2023-09-18T12:26:12;12.57;;;5.37;;
6306;SDS011;3186;54.062;9.962;2023-09-18T12:28:40;9.67;;;5.37;;
6306;SDS011;3186;54.062;9.962;2023-09-18T12:31:09;9.17;;;5.53;;
6306;SDS011;3186;54.062;9.962;2023-09-18T12:33:39;8.47;;;5.80;;
6306;SDS011;3186;54.062;9.962;2023-09-18T12:36:06;9.67;;;5.27;;
6306;SDS011;3186;54.062;9.962;2023-09-18T12:38:33;10.03;;;6.03;;
6306;SDS011;3186;54.062;9.962;2023-09-18T12:40:59;10.83;;;5.83;;
6306;SDS011;3186;54.062;9.962;2023-09-18T12:43:34;7.80;;;5.97;;
6306;SDS011;3186;54.062;9.962;2023-09-18T12:46:05;6.80;;;5.40;;
6306;SDS011;3186;54.062;9.962;2023-09-18T12:48:32;8.50;;;5.77;;
6306;SDS011;3186;54.062;9.962;2023-09-18T12:51:05;8.17;;;5.43;;
6306;SDS011;3186;54.062;9.962;2023-09-18T12:53:31;7.77;;;5.33;;
6306;SDS011;3186;54.062;9.962;2023-09-18T12:56:07;13.43;;;5.90;;
6306;SDS011;3186;54.062;9.962;2023-09-18T12:58:42;9.90;;;5.47;;
6306;SDS011;3186;54.062;9.962;2023-09-18T13:01:09;11.77;;;5.57;;
6306;SDS011;3186;54.062;9.962;2023-09-18T13:03:43;9.80;;;5.23;;
6306;SDS011;3186;54.062;9.962;2023-09-18T13:06:10;8.63;;;5.87;;
6306;SDS011;3186;54.062;9.962;2023-09-18T13:08:37;11.00;;;4.90;;
6306;SDS011;3186;54.062;9.962;2023-09-18T13:11:03;8.70;;;5.37;;
6306;SDS011;3186;54.062;9.962;2023-09-18T13:13:30;7.00;;;5.23;;
6306;SDS011;3186;54.062;9.962;2023-09-18T13:15:59;8.47;;;5.40;;
6306;SDS011;3186;54.062;9.962;2023-09-18T13:18:25;8.10;;;5.73;;
6306;SDS011;3186;54.062;9.962;2023-09-18T13:20:52;8.33;;;5.63;;
6306;SDS011;3186;54.062;9.962;2023-09-18T13:23:18;12.50;;;6.33;;
6306;SDS011;3186;54.062;9.962;2023-09-18T13:25:44;10.80;;;5.50;;
6306;SDS011;3186;54.062;9.962;2023-09-18T13:28:12;12.33;;;5.80;;
6306;SDS011;3186;54.062;9.962;2023-09-18T13:30:42;10.27;;;5.30;;
6306;SDS011;3186;54.062;9.962;2023-09-18T13:33:11;9.60;;;5.30;;
6306;SDS011;3186;54.062;9.962;2023-09-18T13:35:39;8.17;;;5.63;;
6306;SDS011;3186;54.062;9.962;2023-09-18T13:38:06;10.20;;;5.70;;
6306;SDS011;3186;54.062;9.962;2023-09-18T13:40:36;7.53;;;5.13;;
6306;SDS011;3186;54.062;9.962;2023-09-18T13:43:04;8.50;;;5.53;;
6306;SDS011;3186;54.062;9.962;2023-09-18T13:45:31;8.67;;;4.77;;
6306;SDS011;3186;54.062;9.962;2023-09-18T13:48:03;6.13;;;4.93;;
6306;SDS011;3186;54.062;9.962;2023-09-18T13:50:30;15.40;;;5.60;;
6306;SDS011;3186;54.062;9.962;2023-09-18T13:52:56;8.10;;;4.33;;
6306;SDS011;3186;54.062;9.962;2023-09-18T13:55:22;8.13;;;4.63;;
6306;SDS011;3186;54.062;9.962;2023-09-18T13:57:47;7.73;;;4.93;;
6306;SDS011;3186;54.062;9.962;2023-09-18T14:00:13;5.50;;;4.60;;
6306;SDS011;3186;54.062;9.962;2023-09-18T14:02:39;8.83;;;4.63;;
6306;SDS011;3186;54.062;9.962;2023-09-18T14:05:06;11.10;;;4.57;;
6306;SDS011;3186;54.062;9.962;2023-09-18T14:07:33;8.83;;;4.57;;
6306;SDS011;3186;54.062;9.962;2023-09-18T14:09:58;9.20;;;5.10;;
6306;SDS011;3186;54.062;9.962;2023-09-18T14:12:28;7.13;;;4.27;;
6306;SDS011;3186;54.062;9.962;2023-09-18T14:14:55;12.03;;;4.07;;
6306;SDS011;3186;54.062;9.962;2023-09-18T14:17:21;8.97;;;4.40;;
6306;SDS011;3186;54.062;9.962;2023-09-18T14:19:47;7.97;;;4.03;;
6306;SDS011;3186;54.062;9.962;2023-09-18T14:22:13;5.80;;;4.20;;
6306;SDS011;3186;54.062;9.962;2023-09-18T14:24:39;7.43;;;4.30;;
6306;SDS011;3186;54.062;9.962;2023-09-18T14:27:05;9.27;;;4.27;;
6306;SDS011;3186;54.062;9.962;2023-09-18T14:29:31;9.00;;;4.77;;
6306;SDS011;3186;54.062;9.962;2023-09-18T14:31:58;9.30;;;4.63;;
6306;SDS011;3186;54.062;9.962;2023-09-18T14:34:29;11.10;;;4.67;;
6306;SDS011;3186;54.062;9.962;2023-09-18T14:36:56;13.33;;;4.37;;
6306;SDS011;3186;54.062;9.962;2023-09-18T14:39:22;7.17;;;3.77;;
6306;SDS011;3186;54.062;9.962;2023-09-18T14:41:47;9.00;;;3.43;;
6306;SDS011;3186;54.062;9.962;2023-09-18T14:44:14;9.27;;;3.93;;
6306;SDS011;3186;54.062;9.962;2023-09-18T14:46:40;6.70;;;3.87;;
6306;SDS011;3186;54.062;9.962;2023-09-18T14:49:06;9.53;;;3.77;;
6306;SDS011;3186;54.062;9.962;2023-09-18T14:51:34;8.23;;;3.70;;
6306;SDS011;3186;54.062;9.962;2023-09-18T14:54:00;9.00;;;3.50;;
6306;SDS011;3186;54.062;9.962;2023-09-18T14:56:27;6.37;;;3.70;;
6306;SDS011;3186;54.062;9.962;2023-09-18T14:58:52;6.90;;;3.60;;
6306;SDS011;3186;54.062;9.962;2023-09-18T15:01:20;8.27;;;4.03;;
6306;SDS011;3186;54.062;9.962;2023-09-18T15:03:46;9.47;;;3.20;;
6306;SDS011;3186;54.062;9.962;2023-09-18T15:06:14;8.97;;;3.67;;
6306;SDS011;3186;54.062;9.962;2023-09-18T15:08:39;9.70;;;3.83;;
6306;SDS011;3186;54.062;9.962;2023-09-18T15:11:05;6.10;;;3.93;;
6306;SDS011;3186;54.062;9.962;2023-09-18T15:13:31;8.50;;;3.73;;
6306;SDS011;3186;54.062;9.962;2023-09-18T15:15:57;6.40;;;3.70;;
6306;SDS011;3186;54.062;9.962;2023-09-18T15:18:24;4.70;;;3.00;;
6306;SDS011;3186;54.062;9.962;2023-09-18T15:20:50;6.57;;;3.20;;
6306;SDS011;3186;54.062;9.962;2023-09-18T15:23:20;8.27;;;3.43;;
6306;SDS011;3186;54.062;9.962;2023-09-18T15:25:47;6.67;;;3.33;;
6306;SDS011;3186;54.062;9.962;2023-09-18T15:28:13;7.97;;;3.70;;